Search for airport 
image banner adimage banner adimage banner ad
image banner ad

2PA2 - Hillview

Located in Auburn, United States

ICAO - 2PA2, IATA -

Data provided by Airmate  

General information

Coordinates: N40°35'55" W76°8'13"
Elevation is 780 feet MSL.
 
View others Airports in Pennsylvania

Operational data

Special qualification required
Current time UTC:
Current local time:
METAR: KRDG 091354Z 21004KT 10SM OVC100 09/05 A3009 RMK AO2 SLP194 T00940050 $
TAF: KRDG 091120Z 0912/1012 VRB02KT P6SM BKN200 TEMPO 0918/0920 4SM -RA OVC015 FM092000 15005KT P6SM VCSH OVC020 FM100500 VRB02KT P6SM OVC040 WS020/23040KT FM100900 31006KT P6SM BKN035
View NOTAMs / SUP AIP / TFR affecting this airport [VIEW]
Communications frequencies: [VIEW]

Runways:

RWY identifierQFULength (ft)Width (ft)SurfaceLDA (ft)
081200100GRASS
261200100GRASS

Airport contact information

Address: Auburn United States

Satellite view of 2PA2